sensor_id;sensor_type;location;lat;lon;timestamp;P1;durP1;ratioP1;P2;durP2;ratioP2
28531;SDS011;15738;44.860;10.066;2023-08-06T00:02:43;1.33;;;0.60;;
28531;SDS011;15738;44.860;10.066;2023-08-06T00:05:29;1.83;;;0.85;;
28531;SDS011;15738;44.860;10.066;2023-08-06T00:08:15;1.25;;;0.70;;
28531;SDS011;15738;44.860;10.066;2023-08-06T00:11:01;1.73;;;0.77;;
28531;SDS011;15738;44.860;10.066;2023-08-06T00:13:47;2.10;;;0.70;;
28531;SDS011;15738;44.860;10.066;2023-08-06T00:16:33;5.10;;;0.80;;
28531;SDS011;15738;44.860;10.066;2023-08-06T00:19:19;2.88;;;0.70;;
28531;SDS011;15738;44.860;10.066;2023-08-06T00:22:05;2.15;;;0.75;;
28531;SDS011;15738;44.860;10.066;2023-08-06T00:24:51;4.22;;;0.70;;
28531;SDS011;15738;44.860;10.066;2023-08-06T00:27:37;2.08;;;0.75;;
28531;SDS011;15738;44.860;10.066;2023-08-06T00:30:23;2.25;;;0.75;;
28531;SDS011;15738;44.860;10.066;2023-08-06T00:33:09;9.13;;;1.00;;
28531;SDS011;15738;44.860;10.066;2023-08-06T00:35:55;1.90;;;0.70;;
28531;SDS011;15738;44.860;10.066;2023-08-06T00:38:41;2.70;;;0.85;;
28531;SDS011;15738;44.860;10.066;2023-08-06T00:41:27;2.88;;;0.50;;
28531;SDS011;15738;44.860;10.066;2023-08-06T00:44:14;4.38;;;0.88;;
28531;SDS011;15738;44.860;10.066;2023-08-06T00:46:59;2.20;;;0.80;;
28531;SDS011;15738;44.860;10.066;2023-08-06T00:49:46;2.42;;;0.70;;
28531;SDS011;15738;44.860;10.066;2023-08-06T00:52:32;1.58;;;0.70;;
28531;SDS011;15738;44.860;10.066;2023-08-06T00:55:20;2.65;;;0.70;;
28531;SDS011;15738;44.860;10.066;2023-08-06T00:58:06;4.93;;;0.65;;
28531;SDS011;15738;44.860;10.066;2023-08-06T01:00:52;4.93;;;0.80;;
28531;SDS011;15738;44.860;10.066;2023-08-06T01:03:38;1.20;;;0.73;;
28531;SDS011;15738;44.860;10.066;2023-08-06T01:06:30;2.75;;;0.80;;
28531;SDS011;15738;44.860;10.066;2023-08-06T01:12:48;2.28;;;0.73;;
28531;SDS011;15738;44.860;10.066;2023-08-06T01:15:48;1.90;;;0.80;;
28531;SDS011;15738;44.860;10.066;2023-08-06T01:18:39;5.25;;;0.77;;
28531;SDS011;15738;44.860;10.066;2023-08-06T01:21:26;7.47;;;0.90;;
28531;SDS011;15738;44.860;10.066;2023-08-06T01:24:12;1.90;;;1.00;;
28531;SDS011;15738;44.860;10.066;2023-08-06T01:27:04;2.75;;;0.80;;
28531;SDS011;15738;44.860;10.066;2023-08-06T01:29:56;1.77;;;0.73;;
28531;SDS011;15738;44.860;10.066;2023-08-06T01:32:51;5.25;;;0.85;;
28531;SDS011;15738;44.860;10.066;2023-08-06T01:35:45;3.60;;;0.82;;
28531;SDS011;15738;44.860;10.066;2023-08-06T01:38:33;2.03;;;0.70;;
28531;SDS011;15738;44.860;10.066;2023-08-06T01:41:19;1.10;;;0.80;;
28531;SDS011;15738;44.860;10.066;2023-08-06T01:44:05;1.85;;;0.80;;
28531;SDS011;15738;44.860;10.066;2023-08-06T01:46:51;5.05;;;1.00;;
28531;SDS011;15738;44.860;10.066;2023-08-06T01:49:37;2.03;;;0.75;;
28531;SDS011;15738;44.860;10.066;2023-08-06T01:52:22;4.03;;;0.80;;
28531;SDS011;15738;44.860;10.066;2023-08-06T01:55:08;4.15;;;0.80;;
28531;SDS011;15738;44.860;10.066;2023-08-06T01:57:55;4.82;;;0.88;;
28531;SDS011;15738;44.860;10.066;2023-08-06T02:00:41;3.75;;;0.93;;
28531;SDS011;15738;44.860;10.066;2023-08-06T02:03:27;1.35;;;0.93;;
28531;SDS011;15738;44.860;10.066;2023-08-06T02:06:13;2.22;;;0.70;;
28531;SDS011;15738;44.860;10.066;2023-08-06T02:08:59;1.63;;;0.75;;
28531;SDS011;15738;44.860;10.066;2023-08-06T02:11:44;2.15;;;0.80;;
28531;SDS011;15738;44.860;10.066;2023-08-06T02:14:30;1.95;;;0.90;;
28531;SDS011;15738;44.860;10.066;2023-08-06T02:17:17;3.35;;;0.80;;
28531;SDS011;15738;44.860;10.066;2023-08-06T02:20:03;1.77;;;0.80;;
28531;SDS011;15738;44.860;10.066;2023-08-06T02:22:49;1.83;;;0.80;;
28531;SDS011;15738;44.860;10.066;2023-08-06T02:25:35;1.75;;;0.63;;
28531;SDS011;15738;44.860;10.066;2023-08-06T02:28:21;3.47;;;0.70;;
28531;SDS011;15738;44.860;10.066;2023-08-06T02:31:07;2.70;;;0.60;;
28531;SDS011;15738;44.860;10.066;2023-08-06T02:33:54;1.98;;;0.77;;
28531;SDS011;15738;44.860;10.066;2023-08-06T02:36:40;3.80;;;1.00;;
28531;SDS011;15738;44.860;10.066;2023-08-06T02:39:26;2.88;;;0.93;;
28531;SDS011;15738;44.860;10.066;2023-08-06T02:42:12;1.63;;;0.90;;
28531;SDS011;15738;44.860;10.066;2023-08-06T02:44:58;5.80;;;1.30;;
28531;SDS011;15738;44.860;10.066;2023-08-06T02:47:43;4.80;;;1.77;;
28531;SDS011;15738;44.860;10.066;2023-08-06T02:50:29;2.55;;;1.20;;
28531;SDS011;15738;44.860;10.066;2023-08-06T02:53:15;1.55;;;1.25;;
28531;SDS011;15738;44.860;10.066;2023-08-06T02:56:02;2.50;;;1.35;;
28531;SDS011;15738;44.860;10.066;2023-08-06T02:58:59;2.97;;;1.40;;
28531;SDS011;15738;44.860;10.066;2023-08-06T03:01:55;2.75;;;1.52;;
28531;SDS011;15738;44.860;10.066;2023-08-06T03:07:37;4.70;;;1.30;;
28531;SDS011;15738;44.860;10.066;2023-08-06T03:10:30;2.10;;;1.20;;
28531;SDS011;15738;44.860;10.066;2023-08-06T03:13:19;2.00;;;1.25;;
28531;SDS011;15738;44.860;10.066;2023-08-06T03:16:05;2.05;;;1.00;;
28531;SDS011;15738;44.860;10.066;2023-08-06T03:18:51;4.78;;;1.10;;
28531;SDS011;15738;44.860;10.066;2023-08-06T03:21:38;2.33;;;1.08;;
28531;SDS011;15738;44.860;10.066;2023-08-06T03:24:25;1.83;;;0.82;;
28531;SDS011;15738;44.860;10.066;2023-08-06T03:27:10;1.70;;;1.30;;
28531;SDS011;15738;44.860;10.066;2023-08-06T03:29:59;2.20;;;1.40;;
28531;SDS011;15738;44.860;10.066;2023-08-06T03:32:46;4.93;;;1.45;;
28531;SDS011;15738;44.860;10.066;2023-08-06T03:35:35;2.35;;;1.30;;
28531;SDS011;15738;44.860;10.066;2023-08-06T03:38:21;5.28;;;1.63;;
28531;SDS011;15738;44.860;10.066;2023-08-06T03:41:08;4.22;;;1.42;;
28531;SDS011;15738;44.860;10.066;2023-08-06T03:43:54;4.30;;;1.50;;
28531;SDS011;15738;44.860;10.066;2023-08-06T03:46:43;1.85;;;1.13;;
28531;SDS011;15738;44.860;10.066;2023-08-06T03:49:29;3.75;;;1.25;;
28531;SDS011;15738;44.860;10.066;2023-08-06T03:52:15;1.77;;;1.30;;
28531;SDS011;15738;44.860;10.066;2023-08-06T03:55:01;2.03;;;1.35;;
28531;SDS011;15738;44.860;10.066;2023-08-06T03:57:47;2.72;;;1.58;;
28531;SDS011;15738;44.860;10.066;2023-08-06T04:00:33;1.83;;;1.30;;
28531;SDS011;15738;44.860;10.066;2023-08-06T04:03:19;2.78;;;1.30;;
28531;SDS011;15738;44.860;10.066;2023-08-06T04:06:05;1.98;;;1.00;;
28531;SDS011;15738;44.860;10.066;2023-08-06T04:08:54;4.35;;;1.10;;
28531;SDS011;15738;44.860;10.066;2023-08-06T04:11:40;2.83;;;1.30;;
28531;SDS011;15738;44.860;10.066;2023-08-06T04:14:26;3.90;;;0.90;;
28531;SDS011;15738;44.860;10.066;2023-08-06T04:17:15;2.58;;;1.05;;
28531;SDS011;15738;44.860;10.066;2023-08-06T04:20:01;2.13;;;0.77;;
28531;SDS011;15738;44.860;10.066;2023-08-06T04:22:47;5.45;;;0.85;;
28531;SDS011;15738;44.860;10.066;2023-08-06T04:25:33;3.40;;;0.77;;
28531;SDS011;15738;44.860;10.066;2023-08-06T04:28:19;9.73;;;0.50;;
28531;SDS011;15738;44.860;10.066;2023-08-06T04:31:05;4.30;;;1.10;;
28531;SDS011;15738;44.860;10.066;2023-08-06T04:33:51;1.48;;;0.70;;
28531;SDS011;15738;44.860;10.066;2023-08-06T04:36:37;1.45;;;0.65;;
28531;SDS011;15738;44.860;10.066;2023-08-06T04:39:25;4.85;;;0.65;;
28531;SDS011;15738;44.860;10.066;2023-08-06T04:42:13;3.70;;;0.70;;
28531;SDS011;15738;44.860;10.066;2023-08-06T04:45:01;1.40;;;0.60;;
28531;SDS011;15738;44.860;10.066;2023-08-06T04:47:57;0.75;;;0.50;;
28531;SDS011;15738;44.860;10.066;2023-08-06T04:50:46;4.68;;;0.80;;
28531;SDS011;15738;44.860;10.066;2023-08-06T04:53:36;2.20;;;0.60;;
28531;SDS011;15738;44.860;10.066;2023-08-06T04:56:22;3.40;;;0.80;;
28531;SDS011;15738;44.860;10.066;2023-08-06T04:59:08;1.85;;;0.60;;
28531;SDS011;15738;44.860;10.066;2023-08-06T05:01:55;2.28;;;0.60;;
28531;SDS011;15738;44.860;10.066;2023-08-06T05:04:41;3.72;;;0.82;;
28531;SDS011;15738;44.860;10.066;2023-08-06T05:07:27;6.43;;;0.55;;
28531;SDS011;15738;44.860;10.066;2023-08-06T05:10:13;2.17;;;0.60;;
28531;SDS011;15738;44.860;10.066;2023-08-06T05:12:59;0.60;;;0.45;;
28531;SDS011;15738;44.860;10.066;2023-08-06T05:15:46;4.05;;;0.50;;
28531;SDS011;15738;44.860;10.066;2023-08-06T05:18:32;2.50;;;0.63;;
28531;SDS011;15738;44.860;10.066;2023-08-06T05:21:19;0.73;;;0.50;;
28531;SDS011;15738;44.860;10.066;2023-08-06T05:24:05;5.10;;;0.60;;
28531;SDS011;15738;44.860;10.066;2023-08-06T05:26:51;1.42;;;0.47;;
28531;SDS011;15738;44.860;10.066;2023-08-06T05:29:37;0.85;;;0.40;;
28531;SDS011;15738;44.860;10.066;2023-08-06T05:32:23;1.50;;;0.60;;
28531;SDS011;15738;44.860;10.066;2023-08-06T05:35:08;6.00;;;0.80;;
28531;SDS011;15738;44.860;10.066;2023-08-06T05:37:54;2.47;;;0.25;;
28531;SDS011;15738;44.860;10.066;2023-08-06T05:40:40;1.85;;;0.70;;
28531;SDS011;15738;44.860;10.066;2023-08-06T05:43:25;11.70;;;0.73;;
28531;SDS011;15738;44.860;10.066;2023-08-06T05:46:11;2.08;;;0.70;;
28531;SDS011;15738;44.860;10.066;2023-08-06T05:48:57;1.83;;;0.68;;
28531;SDS011;15738;44.860;10.066;2023-08-06T05:51:43;4.28;;;0.65;;
28531;SDS011;15738;44.860;10.066;2023-08-06T05:54:29;2.20;;;0.57;;
28531;SDS011;15738;44.860;10.066;2023-08-06T05:57:15;5.20;;;0.40;;
28531;SDS011;15738;44.860;10.066;2023-08-06T06:00:02;4.43;;;0.50;;
28531;SDS011;15738;44.860;10.066;2023-08-06T06:02:56;3.28;;;0.43;;
28531;SDS011;15738;44.860;10.066;2023-08-06T06:05:42;1.92;;;0.47;;
28531;SDS011;15738;44.860;10.066;2023-08-06T06:08:28;6.28;;;0.45;;
28531;SDS011;15738;44.860;10.066;2023-08-06T06:11:14;4.57;;;0.60;;
28531;SDS011;15738;44.860;10.066;2023-08-06T06:13:59;4.35;;;0.60;;
28531;SDS011;15738;44.860;10.066;2023-08-06T06:16:45;6.90;;;0.90;;
28531;SDS011;15738;44.860;10.066;2023-08-06T06:19:31;7.47;;;0.50;;
28531;SDS011;15738;44.860;10.066;2023-08-06T06:22:20;11.07;;;0.98;;
28531;SDS011;15738;44.860;10.066;2023-08-06T06:25:07;3.10;;;0.73;;
28531;SDS011;15738;44.860;10.066;2023-08-06T06:27:53;3.22;;;1.20;;
28531;SDS011;15738;44.860;10.066;2023-08-06T06:30:38;8.32;;;0.90;;
28531;SDS011;15738;44.860;10.066;2023-08-06T06:33:26;3.38;;;0.80;;
28531;SDS011;15738;44.860;10.066;2023-08-06T06:36:11;5.40;;;0.95;;
28531;SDS011;15738;44.860;10.066;2023-08-06T06:38:57;0.75;;;0.75;;
28531;SDS011;15738;44.860;10.066;2023-08-06T06:41:44;2.08;;;0.85;;
28531;SDS011;15738;44.860;10.066;2023-08-06T06:44:40;1.85;;;0.93;;
28531;SDS011;15738;44.860;10.066;2023-08-06T06:47:26;2.22;;;1.13;;
28531;SDS011;15738;44.860;10.066;2023-08-06T06:50:12;4.18;;;1.20;;
28531;SDS011;15738;44.860;10.066;2023-08-06T06:52:58;1.13;;;0.90;;
28531;SDS011;15738;44.860;10.066;2023-08-06T06:55:44;1.75;;;0.90;;
28531;SDS011;15738;44.860;10.066;2023-08-06T06:58:30;3.45;;;1.20;;
28531;SDS011;15738;44.860;10.066;2023-08-06T07:01:16;2.08;;;1.00;;
28531;SDS011;15738;44.860;10.066;2023-08-06T07:04:03;4.25;;;0.90;;
28531;SDS011;15738;44.860;10.066;2023-08-06T07:06:50;1.77;;;0.85;;
28531;SDS011;15738;44.860;10.066;2023-08-06T07:09:37;3.13;;;1.05;;
28531;SDS011;15738;44.860;10.066;2023-08-06T07:12:23;2.55;;;0.90;;
28531;SDS011;15738;44.860;10.066;2023-08-06T07:15:09;1.00;;;0.80;;
28531;SDS011;15738;44.860;10.066;2023-08-06T07:17:55;1.30;;;0.75;;
28531;SDS011;15738;44.860;10.066;2023-08-06T07:20:41;4.90;;;0.93;;
28531;SDS011;15738;44.860;10.066;2023-08-06T07:23:26;3.30;;;0.80;;
28531;SDS011;15738;44.860;10.066;2023-08-06T07:26:12;1.92;;;0.70;;
28531;SDS011;15738;44.860;10.066;2023-08-06T07:28:58;4.10;;;0.77;;
28531;SDS011;15738;44.860;10.066;2023-08-06T07:31:44;1.75;;;0.90;;
28531;SDS011;15738;44.860;10.066;2023-08-06T07:34:30;4.75;;;0.73;;
28531;SDS011;15738;44.860;10.066;2023-08-06T07:37:16;1.30;;;0.70;;
28531;SDS011;15738;44.860;10.066;2023-08-06T07:40:02;1.52;;;0.50;;
28531;SDS011;15738;44.860;10.066;2023-08-06T07:42:49;4.78;;;0.50;;
28531;SDS011;15738;44.860;10.066;2023-08-06T07:45:35;1.33;;;0.60;;
28531;SDS011;15738;44.860;10.066;2023-08-06T07:48:22;4.50;;;0.82;;
28531;SDS011;15738;44.860;10.066;2023-08-06T07:51:08;4.28;;;0.52;;
28531;SDS011;15738;44.860;10.066;2023-08-06T07:53:54;0.52;;;0.40;;
28531;SDS011;15738;44.860;10.066;2023-08-06T07:56:39;3.60;;;0.68;;
28531;SDS011;15738;44.860;10.066;2023-08-06T07:59:25;5.13;;;0.57;;
28531;SDS011;15738;44.860;10.066;2023-08-06T08:02:11;2.10;;;0.60;;
28531;SDS011;15738;44.860;10.066;2023-08-06T08:04:56;1.17;;;0.47;;
28531;SDS011;15738;44.860;10.066;2023-08-06T08:07:42;1.95;;;0.50;;
28531;SDS011;15738;44.860;10.066;2023-08-06T08:10:29;2.67;;;0.50;;
28531;SDS011;15738;44.860;10.066;2023-08-06T08:13:16;1.85;;;0.40;;
28531;SDS011;15738;44.860;10.066;2023-08-06T08:16:02;6.43;;;0.52;;
28531;SDS011;15738;44.860;10.066;2023-08-06T08:18:48;1.13;;;0.50;;
28531;SDS011;15738;44.860;10.066;2023-08-06T08:21:40;0.95;;;0.45;;
28531;SDS011;15738;44.860;10.066;2023-08-06T08:24:26;2.25;;;0.57;;
28531;SDS011;15738;44.860;10.066;2023-08-06T08:27:12;1.75;;;0.50;;
28531;SDS011;15738;44.860;10.066;2023-08-06T08:29:58;0.63;;;0.30;;
28531;SDS011;15738;44.860;10.066;2023-08-06T08:32:43;5.88;;;0.55;;
28531;SDS011;15738;44.860;10.066;2023-08-06T08:35:29;1.58;;;0.50;;
28531;SDS011;15738;44.860;10.066;2023-08-06T08:38:15;4.43;;;0.70;;
28531;SDS011;15738;44.860;10.066;2023-08-06T08:41:01;1.17;;;0.47;;
28531;SDS011;15738;44.860;10.066;2023-08-06T08:43:48;3.20;;;0.70;;
28531;SDS011;15738;44.860;10.066;2023-08-06T08:46:37;1.50;;;0.68;;
28531;SDS011;15738;44.860;10.066;2023-08-06T08:49:26;2.35;;;0.70;;
28531;SDS011;15738;44.860;10.066;2023-08-06T08:52:12;1.73;;;0.80;;
28531;SDS011;15738;44.860;10.066;2023-08-06T08:55:00;4.80;;;0.80;;
28531;SDS011;15738;44.860;10.066;2023-08-06T08:57:46;1.15;;;0.75;;
28531;SDS011;15738;44.860;10.066;2023-08-06T09:00:33;2.45;;;1.00;;
28531;SDS011;15738;44.860;10.066;2023-08-06T09:03:20;1.15;;;0.63;;
28531;SDS011;15738;44.860;10.066;2023-08-06T09:06:06;2.67;;;0.80;;
28531;SDS011;15738;44.860;10.066;2023-08-06T09:09:00;3.28;;;0.65;;
28531;SDS011;15738;44.860;10.066;2023-08-06T09:11:51;1.88;;;0.80;;
28531;SDS011;15738;44.860;10.066;2023-08-06T09:14:38;0.90;;;0.55;;
28531;SDS011;15738;44.860;10.066;2023-08-06T09:17:23;4.07;;;0.80;;
28531;SDS011;15738;44.860;10.066;2023-08-06T09:20:10;1.58;;;0.60;;
28531;SDS011;15738;44.860;10.066;2023-08-06T09:23:03;4.05;;;0.80;;
28531;SDS011;15738;44.860;10.066;2023-08-06T09:25:56;1.50;;;0.95;;
28531;SDS011;15738;44.860;10.066;2023-08-06T09:28:42;2.33;;;0.73;;
28531;SDS011;15738;44.860;10.066;2023-08-06T09:31:32;0.57;;;0.57;;
28531;SDS011;15738;44.860;10.066;2023-08-06T09:34:24;1.10;;;0.70;;
28531;SDS011;15738;44.860;10.066;2023-08-06T09:37:10;2.53;;;0.80;;
28531;SDS011;15738;44.860;10.066;2023-08-06T09:39:56;1.00;;;0.70;;
28531;SDS011;15738;44.860;10.066;2023-08-06T09:42:42;1.70;;;0.88;;
28531;SDS011;15738;44.860;10.066;2023-08-06T09:45:34;3.50;;;0.80;;
28531;SDS011;15738;44.860;10.066;2023-08-06T09:48:21;1.35;;;0.90;;
28531;SDS011;15738;44.860;10.066;2023-08-06T09:51:09;2.35;;;0.73;;
28531;SDS011;15738;44.860;10.066;2023-08-06T09:53:58;2.00;;;0.80;;
28531;SDS011;15738;44.860;10.066;2023-08-06T09:56:54;2.63;;;0.88;;
28531;SDS011;15738;44.860;10.066;2023-08-06T09:59:40;1.55;;;0.70;;
28531;SDS011;15738;44.860;10.066;2023-08-06T10:02:28;4.38;;;0.80;;
28531;SDS011;15738;44.860;10.066;2023-08-06T10:05:14;1.20;;;0.60;;
28531;SDS011;15738;44.860;10.066;2023-08-06T10:08:01;0.95;;;0.60;;
28531;SDS011;15738;44.860;10.066;2023-08-06T10:10:49;1.48;;;0.57;;
28531;SDS011;15738;44.860;10.066;2023-08-06T10:13:38;2.20;;;0.70;;
28531;SDS011;15738;44.860;10.066;2023-08-06T10:16:25;6.35;;;0.88;;
28531;SDS011;15738;44.860;10.066;2023-08-06T10:19:12;1.42;;;0.70;;
28531;SDS011;15738;44.860;10.066;2023-08-06T10:22:34;0.93;;;0.63;;
28531;SDS011;15738;44.860;10.066;2023-08-06T10:25:16;5.18;;;0.75;;
28531;SDS011;15738;44.860;10.066;2023-08-06T10:28:09;3.47;;;0.85;;
28531;SDS011;15738;44.860;10.066;2023-08-06T10:30:55;0.88;;;0.63;;
28531;SDS011;15738;44.860;10.066;2023-08-06T10:36:28;2.65;;;0.60;;
28531;SDS011;15738;44.860;10.066;2023-08-06T10:39:15;1.30;;;0.73;;
28531;SDS011;15738;44.860;10.066;2023-08-06T10:42:19;1.05;;;0.80;;
28531;SDS011;15738;44.860;10.066;2023-08-06T10:45:13;1.08;;;0.80;;
28531;SDS011;15738;44.860;10.066;2023-08-06T10:48:03;1.10;;;0.90;;
28531;SDS011;15738;44.860;10.066;2023-08-06T10:50:49;1.15;;;0.80;;
28531;SDS011;15738;44.860;10.066;2023-08-06T10:53:36;3.10;;;1.05;;
28531;SDS011;15738;44.860;10.066;2023-08-06T10:56:23;1.90;;;0.85;;
28531;SDS011;15738;44.860;10.066;2023-08-06T10:59:11;1.08;;;0.60;;
28531;SDS011;15738;44.860;10.066;2023-08-06T11:02:04;1.33;;;0.77;;
28531;SDS011;15738;44.860;10.066;2023-08-06T11:04:52;0.85;;;0.70;;
28531;SDS011;15738;44.860;10.066;2023-08-06T11:07:39;2.33;;;0.90;;
28531;SDS011;15738;44.860;10.066;2023-08-06T11:10:25;0.90;;;0.70;;
28531;SDS011;15738;44.860;10.066;2023-08-06T11:13:11;1.95;;;0.85;;
28531;SDS011;15738;44.860;10.066;2023-08-06T11:16:01;1.30;;;0.85;;
28531;SDS011;15738;44.860;10.066;2023-08-06T11:18:47;1.02;;;0.80;;
28531;SDS011;15738;44.860;10.066;2023-08-06T11:21:34;1.02;;;0.70;;
28531;SDS011;15738;44.860;10.066;2023-08-06T11:24:20;6.28;;;1.00;;
28531;SDS011;15738;44.860;10.066;2023-08-06T11:27:13;3.38;;;0.80;;
28531;SDS011;15738;44.860;10.066;2023-08-06T11:29:59;1.80;;;1.00;;
28531;SDS011;15738;44.860;10.066;2023-08-06T11:32:46;1.65;;;0.60;;
28531;SDS011;15738;44.860;10.066;2023-08-06T11:35:35;0.95;;;0.63;;
28531;SDS011;15738;44.860;10.066;2023-08-06T11:38:24;3.53;;;1.00;;
28531;SDS011;15738;44.860;10.066;2023-08-06T11:41:12;1.20;;;0.77;;
28531;SDS011;15738;44.860;10.066;2023-08-06T11:43:58;1.70;;;0.68;;
28531;SDS011;15738;44.860;10.066;2023-08-06T11:46:54;0.93;;;0.73;;
28531;SDS011;15738;44.860;10.066;2023-08-06T11:52:38;3.60;;;0.90;;
28531;SDS011;15738;44.860;10.066;2023-08-06T11:55:25;2.38;;;0.93;;
28531;SDS011;15738;44.860;10.066;2023-08-06T11:58:11;1.35;;;0.73;;
28531;SDS011;15738;44.860;10.066;2023-08-06T12:00:58;1.55;;;0.80;;
28531;SDS011;15738;44.860;10.066;2023-08-06T12:03:44;0.93;;;0.60;;
28531;SDS011;15738;44.860;10.066;2023-08-06T12:06:30;1.10;;;0.90;;
28531;SDS011;15738;44.860;10.066;2023-08-06T12:09:15;1.27;;;1.00;;
28531;SDS011;15738;44.860;10.066;2023-08-06T12:12:02;1.67;;;0.70;;
28531;SDS011;15738;44.860;10.066;2023-08-06T12:14:49;0.70;;;0.68;;
28531;SDS011;15738;44.860;10.066;2023-08-06T12:17:35;4.07;;;1.00;;
28531;SDS011;15738;44.860;10.066;2023-08-06T12:20:21;1.27;;;0.80;;
28531;SDS011;15738;44.860;10.066;2023-08-06T12:23:07;2.25;;;0.90;;
28531;SDS011;15738;44.860;10.066;2023-08-06T12:25:55;1.50;;;0.90;;
28531;SDS011;15738;44.860;10.066;2023-08-06T12:28:40;4.10;;;0.82;;
28531;SDS011;15738;44.860;10.066;2023-08-06T12:31:28;1.15;;;0.93;;
28531;SDS011;15738;44.860;10.066;2023-08-06T12:34:14;2.05;;;0.80;;
28531;SDS011;15738;44.860;10.066;2023-08-06T12:37:01;0.80;;;0.65;;
28531;SDS011;15738;44.860;10.066;2023-08-06T12:39:47;1.98;;;0.73;;
28531;SDS011;15738;44.860;10.066;2023-08-06T12:42:34;1.83;;;0.68;;
28531;SDS011;15738;44.860;10.066;2023-08-06T12:45:19;1.05;;;0.80;;
28531;SDS011;15738;44.860;10.066;2023-08-06T12:48:08;1.00;;;0.70;;
28531;SDS011;15738;44.860;10.066;2023-08-06T12:50:54;1.30;;;0.75;;
28531;SDS011;15738;44.860;10.066;2023-08-06T12:53:40;4.88;;;0.80;;
28531;SDS011;15738;44.860;10.066;2023-08-06T12:56:26;4.88;;;0.80;;
28531;SDS011;15738;44.860;10.066;2023-08-06T12:59:14;2.47;;;0.88;;
28531;SDS011;15738;44.860;10.066;2023-08-06T13:02:00;1.10;;;0.70;;
28531;SDS011;15738;44.860;10.066;2023-08-06T13:04:46;1.88;;;0.80;;
28531;SDS011;15738;44.860;10.066;2023-08-06T13:07:32;2.05;;;0.93;;
28531;SDS011;15738;44.860;10.066;2023-08-06T13:10:18;2.30;;;0.80;;
28531;SDS011;15738;44.860;10.066;2023-08-06T13:13:04;1.35;;;0.80;;
28531;SDS011;15738;44.860;10.066;2023-08-06T13:15:50;6.97;;;0.93;;
28531;SDS011;15738;44.860;10.066;2023-08-06T13:18:36;7.88;;;0.80;;
28531;SDS011;15738;44.860;10.066;2023-08-06T13:21:22;1.65;;;0.90;;
28531;SDS011;15738;44.860;10.066;2023-08-06T13:24:08;0.82;;;0.80;;
28531;SDS011;15738;44.860;10.066;2023-08-06T13:26:54;2.47;;;0.90;;
28531;SDS011;15738;44.860;10.066;2023-08-06T13:29:41;1.17;;;0.80;;
28531;SDS011;15738;44.860;10.066;2023-08-06T13:32:26;0.88;;;0.60;;
28531;SDS011;15738;44.860;10.066;2023-08-06T13:35:12;5.47;;;1.00;;
28531;SDS011;15738;44.860;10.066;2023-08-06T13:37:58;1.00;;;0.88;;
28531;SDS011;15738;44.860;10.066;2023-08-06T13:40:44;4.78;;;0.85;;
28531;SDS011;15738;44.860;10.066;2023-08-06T13:43:31;1.73;;;0.60;;
28531;SDS011;15738;44.860;10.066;2023-08-06T13:46:18;1.35;;;0.82;;
28531;SDS011;15738;44.860;10.066;2023-08-06T13:49:05;1.25;;;0.82;;
28531;SDS011;15738;44.860;10.066;2023-08-06T13:51:51;1.60;;;0.70;;
28531;SDS011;15738;44.860;10.066;2023-08-06T13:54:37;3.90;;;0.70;;
28531;SDS011;15738;44.860;10.066;2023-08-06T13:57:22;2.03;;;0.90;;
28531;SDS011;15738;44.860;10.066;2023-08-06T14:00:08;2.53;;;0.80;;
28531;SDS011;15738;44.860;10.066;2023-08-06T14:02:57;1.58;;;0.82;;
28531;SDS011;15738;44.860;10.066;2023-08-06T14:05:44;2.38;;;1.00;;
28531;SDS011;15738;44.860;10.066;2023-08-06T14:08:29;1.75;;;0.65;;
28531;SDS011;15738;44.860;10.066;2023-08-06T14:11:15;1.20;;;0.75;;
28531;SDS011;15738;44.860;10.066;2023-08-06T14:14:01;3.85;;;0.93;;
28531;SDS011;15738;44.860;10.066;2023-08-06T14:16:48;1.77;;;0.93;;
28531;SDS011;15738;44.860;10.066;2023-08-06T14:19:34;3.17;;;0.93;;
28531;SDS011;15738;44.860;10.066;2023-08-06T14:22:21;4.03;;;0.70;;
28531;SDS011;15738;44.860;10.066;2023-08-06T14:25:07;1.35;;;0.70;;
28531;SDS011;15738;44.860;10.066;2023-08-06T14:27:53;1.38;;;0.98;;
28531;SDS011;15738;44.860;10.066;2023-08-06T14:30:39;0.88;;;0.63;;
28531;SDS011;15738;44.860;10.066;2023-08-06T14:33:25;2.88;;;0.90;;
28531;SDS011;15738;44.860;10.066;2023-08-06T14:36:12;1.85;;;0.88;;
28531;SDS011;15738;44.860;10.066;2023-08-06T14:38:58;1.33;;;0.80;;
28531;SDS011;15738;44.860;10.066;2023-08-06T14:41:44;1.50;;;0.73;;
28531;SDS011;15738;44.860;10.066;2023-08-06T14:44:30;1.25;;;0.80;;
28531;SDS011;15738;44.860;10.066;2023-08-06T14:47:16;1.17;;;0.65;;
28531;SDS011;15738;44.860;10.066;2023-08-06T14:50:02;0.95;;;0.70;;
28531;SDS011;15738;44.860;10.066;2023-08-06T14:52:47;1.23;;;0.80;;
28531;SDS011;15738;44.860;10.066;2023-08-06T14:55:33;3.88;;;1.00;;
28531;SDS011;15738;44.860;10.066;2023-08-06T14:58:19;1.15;;;0.73;;
28531;SDS011;15738;44.860;10.066;2023-08-06T15:01:05;1.27;;;0.70;;
28531;SDS011;15738;44.860;10.066;2023-08-06T15:03:50;4.43;;;0.98;;
28531;SDS011;15738;44.860;10.066;2023-08-06T15:06:36;2.30;;;1.80;;
28531;SDS011;15738;44.860;10.066;2023-08-06T15:09:22;1.63;;;1.20;;
28531;SDS011;15738;44.860;10.066;2023-08-06T15:12:08;1.45;;;0.95;;
28531;SDS011;15738;44.860;10.066;2023-08-06T15:14:54;1.90;;;0.80;;
28531;SDS011;15738;44.860;10.066;2023-08-06T15:17:42;2.05;;;0.80;;
28531;SDS011;15738;44.860;10.066;2023-08-06T15:20:28;0.90;;;0.70;;
28531;SDS011;15738;44.860;10.066;2023-08-06T15:23:13;1.80;;;0.82;;
28531;SDS011;15738;44.860;10.066;2023-08-06T15:25:59;2.13;;;0.88;;
28531;SDS011;15738;44.860;10.066;2023-08-06T15:28:45;1.60;;;0.80;;
28531;SDS011;15738;44.860;10.066;2023-08-06T15:31:38;5.65;;;0.90;;
28531;SDS011;15738;44.860;10.066;2023-08-06T15:34:25;1.13;;;0.68;;
28531;SDS011;15738;44.860;10.066;2023-08-06T15:37:10;3.95;;;0.90;;
28531;SDS011;15738;44.860;10.066;2023-08-06T15:39:56;2.55;;;0.70;;
28531;SDS011;15738;44.860;10.066;2023-08-06T15:42:42;6.47;;;0.90;;
28531;SDS011;15738;44.860;10.066;2023-08-06T15:45:28;1.35;;;0.80;;
28531;SDS011;15738;44.860;10.066;2023-08-06T15:48:15;1.88;;;0.80;;
28531;SDS011;15738;44.860;10.066;2023-08-06T15:51:01;0.85;;;0.65;;
28531;SDS011;15738;44.860;10.066;2023-08-06T15:53:48;2.17;;;0.90;;
28531;SDS011;15738;44.860;10.066;2023-08-06T15:56:35;1.83;;;0.70;;
28531;SDS011;15738;44.860;10.066;2023-08-06T15:59:30;1.50;;;0.80;;
28531;SDS011;15738;44.860;10.066;2023-08-06T16:02:17;5.57;;;0.93;;
28531;SDS011;15738;44.860;10.066;2023-08-06T16:05:04;2.63;;;0.85;;
28531;SDS011;15738;44.860;10.066;2023-08-06T16:07:50;1.00;;;0.73;;
28531;SDS011;15738;44.860;10.066;2023-08-06T16:10:36;0.90;;;0.60;;
28531;SDS011;15738;44.860;10.066;2023-08-06T16:13:22;0.77;;;0.60;;
28531;SDS011;15738;44.860;10.066;2023-08-06T16:16:08;1.48;;;0.85;;
28531;SDS011;15738;44.860;10.066;2023-08-06T16:18:54;2.78;;;0.80;;
28531;SDS011;15738;44.860;10.066;2023-08-06T16:21:40;1.55;;;0.98;;
28531;SDS011;15738;44.860;10.066;2023-08-06T16:24:26;0.73;;;0.60;;
28531;SDS011;15738;44.860;10.066;2023-08-06T16:27:11;2.35;;;0.70;;
28531;SDS011;15738;44.860;10.066;2023-08-06T16:29:58;1.10;;;0.80;;
28531;SDS011;15738;44.860;10.066;2023-08-06T16:32:45;5.40;;;0.80;;
28531;SDS011;15738;44.860;10.066;2023-08-06T16:35:31;3.47;;;0.70;;
28531;SDS011;15738;44.860;10.066;2023-08-06T16:38:17;1.05;;;0.60;;
28531;SDS011;15738;44.860;10.066;2023-08-06T16:41:04;2.15;;;0.85;;
28531;SDS011;15738;44.860;10.066;2023-08-06T16:43:50;1.38;;;0.60;;